sensor_id;sensor_type;location;lat;lon;timestamp;temperature;humidity
3912;DHT22;1971;51.778;10.330;2023-03-04T00:00:39;0.70;99.90
3912;DHT22;1971;51.778;10.330;2023-03-04T00:03:12;0.60;99.90
3912;DHT22;1971;51.778;10.330;2023-03-04T00:05:45;0.60;99.90
3912;DHT22;1971;51.778;10.330;2023-03-04T00:08:15;0.70;99.90
3912;DHT22;1971;51.778;10.330;2023-03-04T00:10:45;0.50;99.90
3912;DHT22;1971;51.778;10.330;2023-03-04T00:13:16;0.60;99.90
3912;DHT22;1971;51.778;10.330;2023-03-04T00:15:48;0.40;99.90
3912;DHT22;1971;51.778;10.330;2023-03-04T00:18:18;0.40;99.90
3912;DHT22;1971;51.778;10.330;2023-03-04T00:20:50;0.60;99.90
3912;DHT22;1971;51.778;10.330;2023-03-04T00:23:20;0.40;99.90
3912;DHT22;1971;51.778;10.330;2023-03-04T00:25:51;0.30;99.90
3912;DHT22;1971;51.778;10.330;2023-03-04T00:28:20;0.50;99.90
3912;DHT22;1971;51.778;10.330;2023-03-04T00:30:50;0.50;99.90
3912;DHT22;1971;51.778;10.330;2023-03-04T00:33:20;0.60;99.90
3912;DHT22;1971;51.778;10.330;2023-03-04T00:35:53;0.30;99.90
3912;DHT22;1971;51.778;10.330;2023-03-04T00:38:23;0.60;99.90
3912;DHT22;1971;51.778;10.330;2023-03-04T00:40:53;0.40;99.90
3912;DHT22;1971;51.778;10.330;2023-03-04T00:43:24;0.60;99.90
3912;DHT22;1971;51.778;10.330;2023-03-04T00:45:54;0.40;99.90
3912;DHT22;1971;51.778;10.330;2023-03-04T00:48:24;0.30;99.90
3912;DHT22;1971;51.778;10.330;2023-03-04T00:50:56;0.60;99.90
3912;DHT22;1971;51.778;10.330;2023-03-04T00:53:26;0.40;99.90
3912;DHT22;1971;51.778;10.330;2023-03-04T00:55:56;0.70;99.90
3912;DHT22;1971;51.778;10.330;2023-03-04T00:58:26;0.50;99.90
3912;DHT22;1971;51.778;10.330;2023-03-04T01:00:55;0.60;99.90
3912;DHT22;1971;51.778;10.330;2023-03-04T01:03:26;0.40;99.90
3912;DHT22;1971;51.778;10.330;2023-03-04T01:06:01;0.40;99.90
3912;DHT22;1971;51.778;10.330;2023-03-04T01:08:30;0.40;99.90
3912;DHT22;1971;51.778;10.330;2023-03-04T01:11:00;0.60;99.90
3912;DHT22;1971;51.778;10.330;2023-03-04T01:13:30;0.40;99.90
3912;DHT22;1971;51.778;10.330;2023-03-04T01:16:03;0.70;99.90
3912;DHT22;1971;51.778;10.330;2023-03-04T01:18:33;0.60;99.90
3912;DHT22;1971;51.778;10.330;2023-03-04T01:21:06;0.30;99.90
3912;DHT22;1971;51.778;10.330;2023-03-04T01:23:36;0.50;99.90
3912;DHT22;1971;51.778;10.330;2023-03-04T01:26:15;0.50;99.90
3912;DHT22;1971;51.778;10.330;2023-03-04T01:28:46;0.40;99.90
3912;DHT22;1971;51.778;10.330;2023-03-04T01:31:16;0.60;99.90
3912;DHT22;1971;51.778;10.330;2023-03-04T01:33:46;0.30;99.90
3912;DHT22;1971;51.778;10.330;2023-03-04T01:36:18;0.50;99.90
3912;DHT22;1971;51.778;10.330;2023-03-04T01:38:49;0.50;99.90
3912;DHT22;1971;51.778;10.330;2023-03-04T01:41:23;0.70;99.90
3912;DHT22;1971;51.778;10.330;2023-03-04T01:43:54;0.60;99.90
3912;DHT22;1971;51.778;10.330;2023-03-04T01:46:26;0.50;99.90
3912;DHT22;1971;51.778;10.330;2023-03-04T01:48:57;0.70;99.90
3912;DHT22;1971;51.778;10.330;2023-03-04T01:51:30;0.60;99.90
3912;DHT22;1971;51.778;10.330;2023-03-04T01:54:00;0.70;99.90
3912;DHT22;1971;51.778;10.330;2023-03-04T01:56:34;0.70;99.90
3912;DHT22;1971;51.778;10.330;2023-03-04T01:59:09;0.40;99.90
3912;DHT22;1971;51.778;10.330;2023-03-04T02:01:42;0.40;99.90
3912;DHT22;1971;51.778;10.330;2023-03-04T02:04:14;0.70;99.90
3912;DHT22;1971;51.778;10.330;2023-03-04T02:06:50;0.40;99.90
3912;DHT22;1971;51.778;10.330;2023-03-04T02:09:21;0.30;99.90
3912;DHT22;1971;51.778;10.330;2023-03-04T02:11:51;0.60;99.90
3912;DHT22;1971;51.778;10.330;2023-03-04T02:14:22;0.30;99.90
3912;DHT22;1971;51.778;10.330;2023-03-04T02:16:52;0.30;99.90
3912;DHT22;1971;51.778;10.330;2023-03-04T02:19:30;0.70;99.90
3912;DHT22;1971;51.778;10.330;2023-03-04T02:22:03;0.30;99.90
3912;DHT22;1971;51.778;10.330;2023-03-04T02:24:38;0.50;99.90
3912;DHT22;1971;51.778;10.330;2023-03-04T02:27:11;0.40;99.90
3912;DHT22;1971;51.778;10.330;2023-03-04T02:29:41;0.30;99.90
3912;DHT22;1971;51.778;10.330;2023-03-04T02:32:12;0.60;99.90
3912;DHT22;1971;51.778;10.330;2023-03-04T02:34:45;0.30;99.90
3912;DHT22;1971;51.778;10.330;2023-03-04T02:37:17;0.30;99.90
3912;DHT22;1971;51.778;10.330;2023-03-04T02:39:51;0.50;99.90
3912;DHT22;1971;51.778;10.330;2023-03-04T02:42:24;0.50;99.90
3912;DHT22;1971;51.778;10.330;2023-03-04T02:44:59;0.50;99.90
3912;DHT22;1971;51.778;10.330;2023-03-04T02:47:29;0.40;99.90
3912;DHT22;1971;51.778;10.330;2023-03-04T02:49:58;0.30;99.90
3912;DHT22;1971;51.778;10.330;2023-03-04T02:52:28;0.60;99.90
3912;DHT22;1971;51.778;10.330;2023-03-04T02:54:58;0.70;99.90
3912;DHT22;1971;51.778;10.330;2023-03-04T02:57:30;0.50;99.90
3912;DHT22;1971;51.778;10.330;2023-03-04T03:00:01;0.50;99.90
3912;DHT22;1971;51.778;10.330;2023-03-04T03:02:31;0.40;99.90
3912;DHT22;1971;51.778;10.330;2023-03-04T03:05:01;0.70;99.90
3912;DHT22;1971;51.778;10.330;2023-03-04T03:07:31;0.70;99.90
3912;DHT22;1971;51.778;10.330;2023-03-04T03:10:05;0.50;99.90
3912;DHT22;1971;51.778;10.330;2023-03-04T03:12:38;0.50;99.90
3912;DHT22;1971;51.778;10.330;2023-03-04T03:15:10;0.70;99.90
3912;DHT22;1971;51.778;10.330;2023-03-04T03:17:40;0.70;99.90
3912;DHT22;1971;51.778;10.330;2023-03-04T03:20:12;0.60;99.90
3912;DHT22;1971;51.778;10.330;2023-03-04T03:22:42;0.30;99.90
3912;DHT22;1971;51.778;10.330;2023-03-04T03:25:13;0.50;99.90
3912;DHT22;1971;51.778;10.330;2023-03-04T03:27:45;0.90;99.90
3912;DHT22;1971;51.778;10.330;2023-03-04T03:30:16;0.90;99.90
3912;DHT22;1971;51.778;10.330;2023-03-04T03:32:46;0.70;99.90
3912;DHT22;1971;51.778;10.330;2023-03-04T03:35:16;0.70;99.90
3912;DHT22;1971;51.778;10.330;2023-03-04T03:37:46;0.80;99.90
3912;DHT22;1971;51.778;10.330;2023-03-04T03:40:17;0.60;99.90
3912;DHT22;1971;51.778;10.330;2023-03-04T03:42:50;0.50;99.90
3912;DHT22;1971;51.778;10.330;2023-03-04T03:45:19;0.70;99.90
3912;DHT22;1971;51.778;10.330;2023-03-04T03:47:50;0.90;99.90
3912;DHT22;1971;51.778;10.330;2023-03-04T03:50:20;0.70;99.90
3912;DHT22;1971;51.778;10.330;2023-03-04T03:52:50;0.70;99.90
3912;DHT22;1971;51.778;10.330;2023-03-04T03:55:20;0.70;99.90
3912;DHT22;1971;51.778;10.330;2023-03-04T03:57:53;0.50;99.90
3912;DHT22;1971;51.778;10.330;2023-03-04T04:00:23;0.60;99.90
3912;DHT22;1971;51.778;10.330;2023-03-04T04:02:53;0.60;99.90
3912;DHT22;1971;51.778;10.330;2023-03-04T04:05:24;0.90;99.90
3912;DHT22;1971;51.778;10.330;2023-03-04T04:07:54;0.90;99.90
3912;DHT22;1971;51.778;10.330;2023-03-04T04:10:24;0.80;99.90
3912;DHT22;1971;51.778;10.330;2023-03-04T04:12:59;1.10;99.90
3912;DHT22;1971;51.778;10.330;2023-03-04T04:15:29;0.70;99.90
3912;DHT22;1971;51.778;10.330;2023-03-04T04:18:05;0.60;99.90
3912;DHT22;1971;51.778;10.330;2023-03-04T04:20:35;1.00;99.90
3912;DHT22;1971;51.778;10.330;2023-03-04T04:23:06;0.80;99.90
3912;DHT22;1971;51.778;10.330;2023-03-04T04:25:35;0.90;99.90
3912;DHT22;1971;51.778;10.330;2023-03-04T04:28:09;0.90;99.90
3912;DHT22;1971;51.778;10.330;2023-03-04T04:30:39;0.80;99.90
3912;DHT22;1971;51.778;10.330;2023-03-04T04:33:09;1.00;99.90
3912;DHT22;1971;51.778;10.330;2023-03-04T04:35:39;0.80;99.90
3912;DHT22;1971;51.778;10.330;2023-03-04T04:38:09;0.90;99.90
3912;DHT22;1971;51.778;10.330;2023-03-04T04:40:39;0.60;99.90
3912;DHT22;1971;51.778;10.330;2023-03-04T04:43:12;0.90;99.90
3912;DHT22;1971;51.778;10.330;2023-03-04T04:45:43;1.20;99.90
3912;DHT22;1971;51.778;10.330;2023-03-04T04:48:13;1.10;99.90
3912;DHT22;1971;51.778;10.330;2023-03-04T04:50:42;0.90;99.90
3912;DHT22;1971;51.778;10.330;2023-03-04T04:53:12;0.90;99.90
3912;DHT22;1971;51.778;10.330;2023-03-04T04:55:43;1.10;99.90
3912;DHT22;1971;51.778;10.330;2023-03-04T04:58:15;0.80;99.90
3912;DHT22;1971;51.778;10.330;2023-03-04T05:00:45;0.80;99.90
3912;DHT22;1971;51.778;10.330;2023-03-04T05:03:15;0.80;99.90
3912;DHT22;1971;51.778;10.330;2023-03-04T05:05:48;1.00;99.90
3912;DHT22;1971;51.778;10.330;2023-03-04T05:08:18;0.90;99.90
3912;DHT22;1971;51.778;10.330;2023-03-04T05:10:48;1.00;99.90
3912;DHT22;1971;51.778;10.330;2023-03-04T05:13:21;1.00;99.90
3912;DHT22;1971;51.778;10.330;2023-03-04T05:15:54;0.80;99.90
3912;DHT22;1971;51.778;10.330;2023-03-04T05:18:25;1.10;99.90
3912;DHT22;1971;51.778;10.330;2023-03-04T05:20:57;0.90;99.90
3912;DHT22;1971;51.778;10.330;2023-03-04T05:23:31;1.00;99.90
3912;DHT22;1971;51.778;10.330;2023-03-04T05:26:02;1.10;99.90
3912;DHT22;1971;51.778;10.330;2023-03-04T05:28:35;1.00;99.90
3912;DHT22;1971;51.778;10.330;2023-03-04T05:31:05;0.80;99.90
3912;DHT22;1971;51.778;10.330;2023-03-04T05:33:36;0.70;99.90
3912;DHT22;1971;51.778;10.330;2023-03-04T05:36:07;1.00;99.90
3912;DHT22;1971;51.778;10.330;2023-03-04T05:38:37;0.80;99.90
3912;DHT22;1971;51.778;10.330;2023-03-04T05:41:07;1.10;99.90
3912;DHT22;1971;51.778;10.330;2023-03-04T05:43:40;0.80;99.90
3912;DHT22;1971;51.778;10.330;2023-03-04T05:46:12;1.10;99.90
3912;DHT22;1971;51.778;10.330;2023-03-04T05:48:43;0.90;99.90
3912;DHT22;1971;51.778;10.330;2023-03-04T05:51:14;1.00;99.90
3912;DHT22;1971;51.778;10.330;2023-03-04T05:53:43;1.00;99.90
3912;DHT22;1971;51.778;10.330;2023-03-04T05:56:16;0.80;99.90
3912;DHT22;1971;51.778;10.330;2023-03-04T05:58:49;1.10;99.90
3912;DHT22;1971;51.778;10.330;2023-03-04T06:01:20;0.90;99.90
3912;DHT22;1971;51.778;10.330;2023-03-04T06:03:49;1.10;99.90
3912;DHT22;1971;51.778;10.330;2023-03-04T06:06:19;0.90;99.90
3912;DHT22;1971;51.778;10.330;2023-03-04T06:08:49;1.10;99.90
3912;DHT22;1971;51.778;10.330;2023-03-04T06:11:20;1.00;99.90
3912;DHT22;1971;51.778;10.330;2023-03-04T06:13:52;1.10;99.90
3912;DHT22;1971;51.778;10.330;2023-03-04T06:16:22;1.00;99.90
3912;DHT22;1971;51.778;10.330;2023-03-04T06:18:52;1.10;99.90
3912;DHT22;1971;51.778;10.330;2023-03-04T06:21:22;1.00;99.90
3912;DHT22;1971;51.778;10.330;2023-03-04T06:23:52;1.10;99.90
3912;DHT22;1971;51.778;10.330;2023-03-04T06:26:22;0.90;99.90
3912;DHT22;1971;51.778;10.330;2023-03-04T06:28:55;1.00;99.90
3912;DHT22;1971;51.778;10.330;2023-03-04T06:31:25;1.00;99.90
3912;DHT22;1971;51.778;10.330;2023-03-04T06:33:55;1.10;99.90
3912;DHT22;1971;51.778;10.330;2023-03-04T06:36:25;0.90;99.90
3912;DHT22;1971;51.778;10.330;2023-03-04T06:38:55;1.00;99.90
3912;DHT22;1971;51.778;10.330;2023-03-04T06:41:25;1.00;99.90
3912;DHT22;1971;51.778;10.330;2023-03-04T06:43:57;1.10;99.90
3912;DHT22;1971;51.778;10.330;2023-03-04T06:46:27;0.90;99.90
3912;DHT22;1971;51.778;10.330;2023-03-04T06:48:57;0.90;99.90
3912;DHT22;1971;51.778;10.330;2023-03-04T06:51:28;1.10;99.90
3912;DHT22;1971;51.778;10.330;2023-03-04T06:53:58;0.80;99.90
3912;DHT22;1971;51.778;10.330;2023-03-04T06:56:27;0.90;99.90
3912;DHT22;1971;51.778;10.330;2023-03-04T06:59:00;0.90;99.90
3912;DHT22;1971;51.778;10.330;2023-03-04T07:01:30;1.00;99.90
3912;DHT22;1971;51.778;10.330;2023-03-04T07:04:01;0.90;99.90
3912;DHT22;1971;51.778;10.330;2023-03-04T07:06:31;1.10;99.90
3912;DHT22;1971;51.778;10.330;2023-03-04T07:09:01;1.00;99.90
3912;DHT22;1971;51.778;10.330;2023-03-04T07:11:31;1.10;99.90
3912;DHT22;1971;51.778;10.330;2023-03-04T07:14:03;1.00;99.90
3912;DHT22;1971;51.778;10.330;2023-03-04T07:16:33;1.30;99.90
3912;DHT22;1971;51.778;10.330;2023-03-04T07:19:04;1.20;99.90
3912;DHT22;1971;51.778;10.330;2023-03-04T07:21:34;1.00;99.90
3912;DHT22;1971;51.778;10.330;2023-03-04T07:24:04;1.40;99.90
3912;DHT22;1971;51.778;10.330;2023-03-04T07:26:34;1.10;99.90
3912;DHT22;1971;51.778;10.330;2023-03-04T07:29:07;1.10;99.90
3912;DHT22;1971;51.778;10.330;2023-03-04T07:31:37;1.20;99.90
3912;DHT22;1971;51.778;10.330;2023-03-04T07:34:12;1.10;99.90
3912;DHT22;1971;51.778;10.330;2023-03-04T07:36:43;1.20;99.90
3912;DHT22;1971;51.778;10.330;2023-03-04T07:39:13;1.30;99.90
3912;DHT22;1971;51.778;10.330;2023-03-04T07:41:43;1.50;99.90
3912;DHT22;1971;51.778;10.330;2023-03-04T07:44:15;1.40;99.90
3912;DHT22;1971;51.778;10.330;2023-03-04T07:46:45;1.20;99.90
3912;DHT22;1971;51.778;10.330;2023-03-04T07:49:16;1.40;99.90
3912;DHT22;1971;51.778;10.330;2023-03-04T07:51:46;1.20;99.90
3912;DHT22;1971;51.778;10.330;2023-03-04T07:54:16;1.20;99.90
3912;DHT22;1971;51.778;10.330;2023-03-04T07:56:47;1.30;99.90
3912;DHT22;1971;51.778;10.330;2023-03-04T07:59:19;1.40;99.90
3912;DHT22;1971;51.778;10.330;2023-03-04T08:01:49;1.50;99.90
3912;DHT22;1971;51.778;10.330;2023-03-04T08:04:19;1.70;99.90
3912;DHT22;1971;51.778;10.330;2023-03-04T08:06:50;1.60;99.90
3912;DHT22;1971;51.778;10.330;2023-03-04T08:09:21;1.20;99.90
3912;DHT22;1971;51.778;10.330;2023-03-04T08:11:51;1.20;99.90
3912;DHT22;1971;51.778;10.330;2023-03-04T08:14:23;1.40;99.90
3912;DHT22;1971;51.778;10.330;2023-03-04T08:16:53;1.50;99.90
3912;DHT22;1971;51.778;10.330;2023-03-04T08:19:23;1.70;99.90
3912;DHT22;1971;51.778;10.330;2023-03-04T08:21:53;1.60;99.90
3912;DHT22;1971;51.778;10.330;2023-03-04T08:24:23;1.40;99.90
3912;DHT22;1971;51.778;10.330;2023-03-04T08:26:53;1.50;99.90
3912;DHT22;1971;51.778;10.330;2023-03-04T08:29:26;1.70;99.90
3912;DHT22;1971;51.778;10.330;2023-03-04T08:31:56;1.70;99.90
3912;DHT22;1971;51.778;10.330;2023-03-04T08:34:27;1.50;99.90
3912;DHT22;1971;51.778;10.330;2023-03-04T08:36:57;1.70;99.90
3912;DHT22;1971;51.778;10.330;2023-03-04T08:39:28;1.60;99.90
3912;DHT22;1971;51.778;10.330;2023-03-04T08:41:59;1.60;99.90
3912;DHT22;1971;51.778;10.330;2023-03-04T08:44:31;1.50;99.90
3912;DHT22;1971;51.778;10.330;2023-03-04T08:47:01;1.70;99.90
3912;DHT22;1971;51.778;10.330;2023-03-04T08:52:20;1.60;99.90
3912;DHT22;1971;51.778;10.330;2023-03-04T08:54:50;1.60;99.90
3912;DHT22;1971;51.778;10.330;2023-03-04T08:57:20;1.60;99.90
3912;DHT22;1971;51.778;10.330;2023-03-04T08:59:53;1.50;99.90
3912;DHT22;1971;51.778;10.330;2023-03-04T09:02:23;1.70;99.90
3912;DHT22;1971;51.778;10.330;2023-03-04T09:04:53;1.80;99.90
3912;DHT22;1971;51.778;10.330;2023-03-04T09:07:26;1.70;99.90
3912;DHT22;1971;51.778;10.330;2023-03-04T09:09:56;1.90;99.90
3912;DHT22;1971;51.778;10.330;2023-03-04T09:12:26;1.80;99.90
3912;DHT22;1971;51.778;10.330;2023-03-04T09:14:58;2.00;99.90
3912;DHT22;1971;51.778;10.330;2023-03-04T09:17:37;2.00;99.90
3912;DHT22;1971;51.778;10.330;2023-03-04T09:20:10;2.00;99.90
3912;DHT22;1971;51.778;10.330;2023-03-04T09:22:41;2.10;99.90
3912;DHT22;1971;51.778;10.330;2023-03-04T09:25:13;2.40;99.90
3912;DHT22;1971;51.778;10.330;2023-03-04T09:27:43;2.00;99.90
3912;DHT22;1971;51.778;10.330;2023-03-04T09:30:18;2.00;99.90
3912;DHT22;1971;51.778;10.330;2023-03-04T09:32:48;2.10;99.90
3912;DHT22;1971;51.778;10.330;2023-03-04T09:35:18;2.00;99.90
3912;DHT22;1971;51.778;10.330;2023-03-04T09:37:49;2.20;99.90
3912;DHT22;1971;51.778;10.330;2023-03-04T09:40:22;2.00;99.90
3912;DHT22;1971;51.778;10.330;2023-03-04T09:42:56;2.20;99.90
3912;DHT22;1971;51.778;10.330;2023-03-04T09:45:36;2.10;99.90
3912;DHT22;1971;51.778;10.330;2023-03-04T09:48:14;2.40;99.90
3912;DHT22;1971;51.778;10.330;2023-03-04T09:50:55;2.10;99.90
3912;DHT22;1971;51.778;10.330;2023-03-04T09:53:33;2.10;99.90
3912;DHT22;1971;51.778;10.330;2023-03-04T09:56:06;2.40;99.90
3912;DHT22;1971;51.778;10.330;2023-03-04T09:58:43;2.30;99.90
3912;DHT22;1971;51.778;10.330;2023-03-04T10:01:20;2.40;99.90
3912;DHT22;1971;51.778;10.330;2023-03-04T10:03:56;2.30;99.90
3912;DHT22;1971;51.778;10.330;2023-03-04T10:06:27;2.20;99.90
3912;DHT22;1971;51.778;10.330;2023-03-04T10:09:02;2.30;99.90
3912;DHT22;1971;51.778;10.330;2023-03-04T10:11:36;2.30;99.90
3912;DHT22;1971;51.778;10.330;2023-03-04T10:14:26;2.70;99.90
3912;DHT22;1971;51.778;10.330;2023-03-04T10:17:06;2.40;99.90
3912;DHT22;1971;51.778;10.330;2023-03-04T10:19:51;2.50;99.90
3912;DHT22;1971;51.778;10.330;2023-03-04T10:22:26;2.30;99.90
3912;DHT22;1971;51.778;10.330;2023-03-04T10:25:00;2.50;99.90
3912;DHT22;1971;51.778;10.330;2023-03-04T10:27:31;2.40;99.90
3912;DHT22;1971;51.778;10.330;2023-03-04T10:30:01;2.40;99.90
3912;DHT22;1971;51.778;10.330;2023-03-04T10:32:34;2.50;99.90
3912;DHT22;1971;51.778;10.330;2023-03-04T10:35:10;2.70;99.90
3912;DHT22;1971;51.778;10.330;2023-03-04T10:37:45;2.60;99.90
3912;DHT22;1971;51.778;10.330;2023-03-04T10:40:20;2.40;99.90
3912;DHT22;1971;51.778;10.330;2023-03-04T10:42:53;2.80;99.90
3912;DHT22;1971;51.778;10.330;2023-03-04T10:45:24;2.80;99.90
3912;DHT22;1971;51.778;10.330;2023-03-04T10:47:59;2.60;99.90
3912;DHT22;1971;51.778;10.330;2023-03-04T10:50:29;2.50;99.90
3912;DHT22;1971;51.778;10.330;2023-03-04T10:52:59;2.50;99.90
3912;DHT22;1971;51.778;10.330;2023-03-04T10:55:40;2.50;99.90
3912;DHT22;1971;51.778;10.330;2023-03-04T10:58:14;2.40;99.90
3912;DHT22;1971;51.778;10.330;2023-03-04T11:00:57;2.30;99.90
3912;DHT22;1971;51.778;10.330;2023-03-04T11:03:37;2.50;99.90
3912;DHT22;1971;51.778;10.330;2023-03-04T11:06:18;2.70;99.90
3912;DHT22;1971;51.778;10.330;2023-03-04T11:08:53;2.50;99.90
3912;DHT22;1971;51.778;10.330;2023-03-04T11:11:27;2.30;99.90
3912;DHT22;1971;51.778;10.330;2023-03-04T11:14:03;2.60;99.90
3912;DHT22;1971;51.778;10.330;2023-03-04T11:16:35;2.50;99.90
3912;DHT22;1971;51.778;10.330;2023-03-04T11:19:13;2.30;99.90
3912;DHT22;1971;51.778;10.330;2023-03-04T11:21:44;2.20;99.90
3912;DHT22;1971;51.778;10.330;2023-03-04T11:24:19;2.20;99.90
3912;DHT22;1971;51.778;10.330;2023-03-04T11:27:00;2.20;99.90
3912;DHT22;1971;51.778;10.330;2023-03-04T11:29:35;2.40;99.90
3912;DHT22;1971;51.778;10.330;2023-03-04T11:32:12;2.30;99.90
3912;DHT22;1971;51.778;10.330;2023-03-04T11:34:50;2.60;99.90
3912;DHT22;1971;51.778;10.330;2023-03-04T11:37:26;2.60;99.90
3912;DHT22;1971;51.778;10.330;2023-03-04T11:40:03;2.40;99.90
3912;DHT22;1971;51.778;10.330;2023-03-04T11:42:38;2.60;99.90
3912;DHT22;1971;51.778;10.330;2023-03-04T11:45:11;2.80;99.90
3912;DHT22;1971;51.778;10.330;2023-03-04T11:48:03;2.50;99.90
3912;DHT22;1971;51.778;10.330;2023-03-04T11:50:49;2.40;99.90
3912;DHT22;1971;51.778;10.330;2023-03-04T11:53:32;2.60;99.90
3912;DHT22;1971;51.778;10.330;2023-03-04T11:56:21;2.60;99.90
3912;DHT22;1971;51.778;10.330;2023-03-04T12:01:57;2.70;99.90
3912;DHT22;1971;51.778;10.330;2023-03-04T12:04:42;2.60;99.90
3912;DHT22;1971;51.778;10.330;2023-03-04T12:07:27;2.80;99.90
3912;DHT22;1971;51.778;10.330;2023-03-04T12:10:19;2.70;99.90
3912;DHT22;1971;51.778;10.330;2023-03-04T12:13:14;2.70;99.90
3912;DHT22;1971;51.778;10.330;2023-03-04T12:15:54;2.70;99.90
3912;DHT22;1971;51.778;10.330;2023-03-04T12:18:35;2.90;99.90
3912;DHT22;1971;51.778;10.330;2023-03-04T12:21:15;3.10;99.90
3912;DHT22;1971;51.778;10.330;2023-03-04T12:24:26;3.10;99.90
3912;DHT22;1971;51.778;10.330;2023-03-04T12:27:05;3.00;99.90
3912;DHT22;1971;51.778;10.330;2023-03-04T12:29:41;3.10;99.90
3912;DHT22;1971;51.778;10.330;2023-03-04T12:32:20;3.10;99.90
3912;DHT22;1971;51.778;10.330;2023-03-04T12:35:17;2.90;99.90
3912;DHT22;1971;51.778;10.330;2023-03-04T12:38:21;2.80;99.90
3912;DHT22;1971;51.778;10.330;2023-03-04T12:41:03;2.80;99.90
3912;DHT22;1971;51.778;10.330;2023-03-04T12:43:47;2.90;99.90
3912;DHT22;1971;51.778;10.330;2023-03-04T12:46:31;3.10;99.90
3912;DHT22;1971;51.778;10.330;2023-03-04T12:52:14;2.50;99.90
3912;DHT22;1971;51.778;10.330;2023-03-04T12:54:50;2.60;99.90
3912;DHT22;1971;51.778;10.330;2023-03-04T12:57:26;2.50;99.90
3912;DHT22;1971;51.778;10.330;2023-03-04T13:00:08;2.50;99.90
3912;DHT22;1971;51.778;10.330;2023-03-04T13:03:05;2.50;99.90
3912;DHT22;1971;51.778;10.330;2023-03-04T13:05:47;2.60;99.90
3912;DHT22;1971;51.778;10.330;2023-03-04T13:08:32;2.60;99.90
3912;DHT22;1971;51.778;10.330;2023-03-04T13:14:29;3.10;99.90
3912;DHT22;1971;51.778;10.330;2023-03-04T13:22:58;2.80;99.90
3912;DHT22;1971;51.778;10.330;2023-03-04T13:25:36;2.70;99.90
3912;DHT22;1971;51.778;10.330;2023-03-04T13:28:17;2.70;99.90
3912;DHT22;1971;51.778;10.330;2023-03-04T13:31:15;2.70;99.90
3912;DHT22;1971;51.778;10.330;2023-03-04T13:34:09;2.40;99.90
3912;DHT22;1971;51.778;10.330;2023-03-04T13:36:59;2.50;99.90
3912;DHT22;1971;51.778;10.330;2023-03-04T13:39:32;2.30;99.90
3912;DHT22;1971;51.778;10.330;2023-03-04T13:42:04;2.50;99.90
3912;DHT22;1971;51.778;10.330;2023-03-04T13:44:58;2.50;99.90
3912;DHT22;1971;51.778;10.330;2023-03-04T13:50:38;2.80;99.90
3912;DHT22;1971;51.778;10.330;2023-03-04T13:53:36;3.00;99.90
3912;DHT22;1971;51.778;10.330;2023-03-04T13:56:30;3.00;99.90
3912;DHT22;1971;51.778;10.330;2023-03-04T13:59:20;2.70;99.90
3912;DHT22;1971;51.778;10.330;2023-03-04T14:01:58;2.70;99.90
3912;DHT22;1971;51.778;10.330;2023-03-04T14:04:31;3.10;99.90
3912;DHT22;1971;51.778;10.330;2023-03-04T14:07:16;2.70;99.90
3912;DHT22;1971;51.778;10.330;2023-03-04T14:09:58;2.70;99.90
3912;DHT22;1971;51.778;10.330;2023-03-04T14:12:30;2.60;99.90
3912;DHT22;1971;51.778;10.330;2023-03-04T14:15:03;2.80;99.90
3912;DHT22;1971;51.778;10.330;2023-03-04T14:17:34;2.70;99.90
3912;DHT22;1971;51.778;10.330;2023-03-04T14:20:23;2.80;99.90
3912;DHT22;1971;51.778;10.330;2023-03-04T14:22:54;2.70;99.90
3912;DHT22;1971;51.778;10.330;2023-03-04T14:25:28;3.20;99.90
3912;DHT22;1971;51.778;10.330;2023-03-04T14:28:04;3.10;99.90
3912;DHT22;1971;51.778;10.330;2023-03-04T14:30:34;3.50;99.90
3912;DHT22;1971;51.778;10.330;2023-03-04T14:33:15;3.80;99.90
3912;DHT22;1971;51.778;10.330;2023-03-04T14:35:47;3.70;99.90
3912;DHT22;1971;51.778;10.330;2023-03-04T14:38:22;3.40;99.90
3912;DHT22;1971;51.778;10.330;2023-03-04T14:40:58;3.20;99.90
3912;DHT22;1971;51.778;10.330;2023-03-04T14:43:35;3.20;99.90
3912;DHT22;1971;51.778;10.330;2023-03-04T14:46:12;2.80;99.90
3912;DHT22;1971;51.778;10.330;2023-03-04T14:48:47;3.10;99.90
3912;DHT22;1971;51.778;10.330;2023-03-04T14:51:36;2.70;99.90
3912;DHT22;1971;51.778;10.330;2023-03-04T14:54:26;2.60;99.90
3912;DHT22;1971;51.778;10.330;2023-03-04T14:57:00;2.50;99.90
3912;DHT22;1971;51.778;10.330;2023-03-04T14:59:32;2.40;99.90
3912;DHT22;1971;51.778;10.330;2023-03-04T15:02:18;2.60;99.90
3912;DHT22;1971;51.778;10.330;2023-03-04T15:04:48;2.30;99.90
3912;DHT22;1971;51.778;10.330;2023-03-04T15:07:21;2.30;99.90
3912;DHT22;1971;51.778;10.330;2023-03-04T15:09:53;2.10;99.90
3912;DHT22;1971;51.778;10.330;2023-03-04T15:12:29;2.10;99.90
3912;DHT22;1971;51.778;10.330;2023-03-04T15:15:01;2.30;99.90
3912;DHT22;1971;51.778;10.330;2023-03-04T15:17:33;2.20;99.90
3912;DHT22;1971;51.778;10.330;2023-03-04T15:20:24;2.20;99.90
3912;DHT22;1971;51.778;10.330;2023-03-04T15:22:56;2.30;99.90
3912;DHT22;1971;51.778;10.330;2023-03-04T15:25:27;2.30;99.90
3912;DHT22;1971;51.778;10.330;2023-03-04T15:28:01;2.10;99.90
3912;DHT22;1971;51.778;10.330;2023-03-04T15:30:32;2.30;99.90
3912;DHT22;1971;51.778;10.330;2023-03-04T15:33:08;2.40;99.90
3912;DHT22;1971;51.778;10.330;2023-03-04T15:35:39;2.30;99.90
3912;DHT22;1971;51.778;10.330;2023-03-04T15:38:11;1.90;99.90
3912;DHT22;1971;51.778;10.330;2023-03-04T15:40:41;2.00;99.90
3912;DHT22;1971;51.778;10.330;2023-03-04T15:43:16;1.90;99.90
3912;DHT22;1971;51.778;10.330;2023-03-04T15:45:48;2.00;99.90
3912;DHT22;1971;51.778;10.330;2023-03-04T15:48:18;2.00;99.90
3912;DHT22;1971;51.778;10.330;2023-03-04T15:50:53;1.80;99.90
3912;DHT22;1971;51.778;10.330;2023-03-04T15:53:27;1.70;99.90
3912;DHT22;1971;51.778;10.330;2023-03-04T15:56:00;1.80;99.90
3912;DHT22;1971;51.778;10.330;2023-03-04T15:58:33;1.90;99.90
3912;DHT22;1971;51.778;10.330;2023-03-04T16:01:04;1.90;99.90
3912;DHT22;1971;51.778;10.330;2023-03-04T16:03:34;1.70;99.90
3912;DHT22;1971;51.778;10.330;2023-03-04T16:06:08;1.90;99.90
3912;DHT22;1971;51.778;10.330;2023-03-04T16:08:38;2.10;99.90
3912;DHT22;1971;51.778;10.330;2023-03-04T16:11:13;2.10;99.90
3912;DHT22;1971;51.778;10.330;2023-03-04T16:13:46;2.10;99.90
3912;DHT22;1971;51.778;10.330;2023-03-04T16:16:16;2.10;99.90
3912;DHT22;1971;51.778;10.330;2023-03-04T16:18:46;2.10;99.90
3912;DHT22;1971;51.778;10.330;2023-03-04T16:21:18;1.90;99.90
3912;DHT22;1971;51.778;10.330;2023-03-04T16:23:50;1.60;99.90
3912;DHT22;1971;51.778;10.330;2023-03-04T16:26:27;1.80;99.90
3912;DHT22;1971;51.778;10.330;2023-03-04T16:29:01;1.90;99.90
3912;DHT22;1971;51.778;10.330;2023-03-04T16:31:31;1.70;99.90
3912;DHT22;1971;51.778;10.330;2023-03-04T16:34:01;1.80;99.90
3912;DHT22;1971;51.778;10.330;2023-03-04T16:36:30;1.70;99.90
3912;DHT22;1971;51.778;10.330;2023-03-04T16:39:04;1.70;99.90
3912;DHT22;1971;51.778;10.330;2023-03-04T16:41:35;1.80;99.90
3912;DHT22;1971;51.778;10.330;2023-03-04T16:44:09;1.50;99.90
3912;DHT22;1971;51.778;10.330;2023-03-04T16:46:40;1.60;99.90
3912;DHT22;1971;51.778;10.330;2023-03-04T16:49:10;1.50;99.90
3912;DHT22;1971;51.778;10.330;2023-03-04T16:51:45;1.60;99.90
3912;DHT22;1971;51.778;10.330;2023-03-04T16:54:28;1.30;99.90
3912;DHT22;1971;51.778;10.330;2023-03-04T16:56:59;1.20;99.90
3912;DHT22;1971;51.778;10.330;2023-03-04T16:59:31;1.30;99.90
3912;DHT22;1971;51.778;10.330;2023-03-04T17:02:01;1.40;99.90
3912;DHT22;1971;51.778;10.330;2023-03-04T17:04:31;1.30;99.90